Aeroporto :
LOGIN :

Iscrizione | Disclaimer

   EN    FR    IT 

 










Sommario :    VFR   VFR Marginale   IFR   IFR Intensivo   IFR Molto Intensivo
Visibilità : 
Base nubi : 
>= 8 km
>= 3000ft
5 / 8 km
1000 / 3000 ft
1500m / 5 km
500 / 1000 ft
800 / 1500m
200 / 500 ft
< 800m
< 200 ft
Simboli :   Temporali  Nebbia  Neve Forte  Precipitazioni Forti  Vento > 20 kt
SIGMETs :   Varie  Temporali  Ghiacco  Turbolenza  Onda orograficha  Ceneri Vulcaniche






- Altitudine del aeroporto : 628 ft
- Codice IATA : CMR


LFGA - Colmar-Houssen

ULTIMO METAR :
  • 231100Z AUTO 18014KT 160V220 9999 OVC043 14/05 Q1024

METARs OBSOLETI :
  • 231030Z AUTO 19016KT 170V260 9999 BKN043 BKN049 14/05 Q1025
  • 231000Z AUTO 19014KT 9999 FEW042 13/04 Q1025
  • 230930Z AUTO 20019KT 9999 FEW043 SCT250 13/04 Q1025
  • 230900Z AUTO 20017KT CAVOK 12/05 Q1025
  • 230830Z AUTO 21015KT 9999 SCT039 BKN110 12/05 Q1026
  • 230800Z AUTO 20012KT 9999 BKN039 OVC110 11/06 Q1026

TAF N/A



MetMap, La meteo Aeronautica in un colpo d'occhio ! - Copyright ORBIFLY Dicembre 2007 - Disclaimer

ORBIFLY MET'MAP TEAM :

Programmazione e sviluppo : Alexandra Zaïnal
Concezione : Baudouin d'Aumeries
Aiuto per la programmazione : Marc-Olivier Méhu
Supporto tecnico e logistico : Manuel Goepfert
Aiuto per la traduzione : Arnaldo La Scala

Contatto : metmap@orbifly.com




FONTI E CREDITI :

   NOAA